Upstream stations:
Downstream station:
SHEF ID: MTCO2 Tar Creek at 22nd Street Bridge
STATION TYPE:
PRECIP STAGE STAGE(2) RIV-FLOW BAT-LOAD
in ft ft cfs volt
Ccp-Rev Ccp-Rev Ccp-Rev Ccp-Rev Ccp-Rev
(US/Central)
03/26 00:00 0.00 4.25 4.25 37 12.41
03/26 01:00 0.00 4.25 4.25 37 12.41
03/26 02:00 0.00 4.26 4.27 38 12.41
03/26 03:00 0.00 4.26 4.27 38 12.33
03/26 04:00 0.00 4.27 4.28 39 12.33
03/26 05:00 0.00 4.28 4.29 40 12.25
03/26 06:00 0.00 4.28 4.29 40 12.25
03/26 07:00 0.00 4.27 4.28 39 12.25
03/26 08:00 0.00 4.26 4.26 38 12.25
03/26 09:00 0.00 4.25 4.25 37 12.41
03/26 10:00 0.00 4.23 4.23 35 12.73
03/26 11:00 0.00 4.22 4.23 34 13.29
03/26 12:00 0.00 4.22 4.23 34 13.37
03/26 13:00 0.00 4.21 4.22 33 13.37
03/26 14:00 0.00 4.20 4.21 32 13.44
03/26 15:00 0.00 4.20 4.18 32 13.68
03/26 16:00 0.00 4.19 4.17 31 13.44
03/26 17:00 0.00 4.18 4.17 31 13.21
03/26 18:00 0.00 4.18 4.17 31 13.05
03/26 19:00 0.00 4.17 4.17 30 13.13
03/26 20:00 0.00 4.16 4.16 29 12.97
03/26 21:00 0.00 4.16 4.18 29 12.65
03/26 22:00 0.00 4.15 4.17 28 12.49
03/26 23:00 0.00 4.15 4.17 28 12.41